Time;durP1;ratioP1;P1;durP2;ratioP2;P2;SDS_P1;SDS_P2;PMS_P1;PMS_P2;Temp;Humidity;BMP_temperature;BMP_pressure;BME280_temperature;BME280_humidity;BME280_pressure;Samples;Min_cycle;Max_cycle;Signal;HPM_P1;HPM_P2
2023/10/12 00:00:27;;;;;;;12.35;5.70;;;;;;;;;;5071157;28;20207;-70
2023/10/12 00:02:57;;;;;;;8.35;5.20;;;;;;;;;;5071078;28;20696;-71
2023/10/12 00:05:27;;;;;;;9.30;5.80;;;;;;;;;;5071133;28;20218;-70
2023/10/12 00:07:55;;;;;;;11.55;5.97;;;;;;;;;;5071104;28;20657;-70
2023/10/12 00:10:21;;;;;;;11.30;5.93;;;;;;;;;;5070734;28;20617;-70
2023/10/12 00:12:50;;;;;;;12.00;5.72;;;;;;;;;;5071109;28;20204;-70
2023/10/12 00:15:23;;;;;;;8.15;6.05;;;;;;;;;;5070980;28;20219;-70
2023/10/12 00:17:50;;;;;;;13.75;6.10;;;;;;;;;;5064328;28;20224;-70
2023/10/12 00:20:32;;;;;;;10.85;5.72;;;;;;;;;;5070924;28;20661;-70
2023/10/12 00:23:02;;;;;;;11.27;6.40;;;;;;;;;;5066416;28;20702;-70
2023/10/12 00:25:33;;;;;;;9.90;5.85;;;;;;;;;;5075054;28;20718;-69
2023/10/12 00:28:01;;;;;;;11.45;5.93;;;;;;;;;;5075242;28;20200;-70
2023/10/12 00:30:31;;;;;;;12.75;6.15;;;;;;;;;;5074882;28;20205;-70
2023/10/12 00:32:57;;;;;;;14.07;6.13;;;;;;;;;;5075099;28;20288;-70
2023/10/12 00:35:24;;;;;;;14.88;7.25;;;;;;;;;;5074755;28;20220;-70
2023/10/12 00:37:54;;;;;;;14.80;7.40;;;;;;;;;;5074807;28;20661;-70
2023/10/12 00:40:26;;;;;;;14.20;7.88;;;;;;;;;;5074445;28;20672;-70
2023/10/12 00:42:53;;;;;;;10.70;6.50;;;;;;;;;;5074891;28;20232;-70
2023/10/12 00:45:28;;;;;;;13.77;6.97;;;;;;;;;;5074810;28;20213;-70
2023/10/12 00:47:56;;;;;;;13.30;6.85;;;;;;;;;;5067834;28;20286;-71
2023/10/12 00:50:22;;;;;;;12.10;7.28;;;;;;;;;;5074280;28;20200;-70
2023/10/12 00:52:56;;;;;;;14.75;6.22;;;;;;;;;;5074593;28;20787;-71
2023/10/12 00:55:34;;;;;;;11.30;6.00;;;;;;;;;;5074682;28;20311;-71
2023/10/12 00:58:03;;;;;;;12.25;6.40;;;;;;;;;;5074600;28;20721;-71
2023/10/12 01:00:35;;;;;;;16.08;6.30;;;;;;;;;;5074233;28;20251;-70
2023/10/12 01:05:42;;;;;;;13.15;6.75;;;;;;;;;;5073719;28;20606;-70
2023/10/12 01:08:10;;;;;;;9.95;6.15;;;;;;;;;;5074321;28;20224;-71
2023/10/12 01:10:41;;;;;;;13.13;6.45;;;;;;;;;;5073980;28;20201;-70
2023/10/12 01:13:09;;;;;;;10.43;6.30;;;;;;;;;;5074305;28;20200;-70
2023/10/12 01:15:35;;;;;;;12.32;6.25;;;;;;;;;;5073912;28;20315;-70
2023/10/12 01:18:03;;;;;;;13.25;6.50;;;;;;;;;;5074321;28;20232;-70
2023/10/12 01:20:38;;;;;;;10.30;6.43;;;;;;;;;;5074096;28;20231;-70
2023/10/12 01:23:07;;;;;;;20.30;6.65;;;;;;;;;;5074017;28;20216;-70
2023/10/12 01:25:40;;;;;;;11.02;6.18;;;;;;;;;;5073799;28;20311;-70
2023/10/12 01:28:06;;;;;;;11.93;6.30;;;;;;;;;;5073759;28;20618;-70
2023/10/12 01:30:36;;;;;;;9.65;6.00;;;;;;;;;;5073435;28;20299;-70
2023/10/12 01:33:04;;;;;;;11.48;5.60;;;;;;;;;;5073962;28;20197;-70
2023/10/12 01:35:33;;;;;;;11.10;6.00;;;;;;;;;;5072808;28;20252;-70
2023/10/12 01:38:01;;;;;;;11.23;5.55;;;;;;;;;;5073730;28;20235;-70
2023/10/12 01:40:41;;;;;;;8.65;5.90;;;;;;;;;;5073313;28;20207;-70
2023/10/12 01:43:12;;;;;;;9.02;5.47;;;;;;;;;;5073877;28;20227;-70
2023/10/12 01:45:41;;;;;;;12.13;6.50;;;;;;;;;;5073849;28;20220;-70
2023/10/12 01:48:10;;;;;;;14.07;6.65;;;;;;;;;;5073559;28;20293;-70
2023/10/12 01:50:38;;;;;;;14.18;6.35;;;;;;;;;;5073282;28;20288;-70
2023/10/12 01:53:08;;;;;;;10.57;6.38;;;;;;;;;;5073444;28;20708;-70
2023/10/12 01:55:36;;;;;;;11.88;6.90;;;;;;;;;;5073085;28;20269;-70
2023/10/12 01:58:04;;;;;;;14.80;7.53;;;;;;;;;;5073266;28;20640;-70
2023/10/12 02:00:39;;;;;;;10.50;6.75;;;;;;;;;;5072916;28;20634;-70
2023/10/12 02:03:12;;;;;;;12.27;6.85;;;;;;;;;;5073305;28;20215;-70
2023/10/12 02:05:39;;;;;;;16.60;9.13;;;;;;;;;;5073088;28;20708;-70
2023/10/12 02:08:06;;;;;;;16.38;8.88;;;;;;;;;;5073027;28;20739;-70
2023/10/12 02:10:43;;;;;;;12.98;8.07;;;;;;;;;;5073070;28;20201;-70
2023/10/12 02:13:11;;;;;;;11.27;7.72;;;;;;;;;;5073276;28;20587;-70
2023/10/12 02:15:38;;;;;;;14.65;8.15;;;;;;;;;;5072852;28;20223;-70
2023/10/12 02:18:10;;;;;;;19.65;8.38;;;;;;;;;;5072980;28;20291;-70
2023/10/12 02:20:42;;;;;;;12.48;7.50;;;;;;;;;;5072893;28;20230;-70
2023/10/12 02:23:11;;;;;;;10.23;6.43;;;;;;;;;;5073095;28;20297;-70
2023/10/12 02:25:43;;;;;;;14.73;7.38;;;;;;;;;;5072748;28;20224;-70
2023/10/12 02:28:10;;;;;;;11.35;7.25;;;;;;;;;;5072718;28;20708;-70
2023/10/12 02:30:37;;;;;;;11.15;7.10;;;;;;;;;;5072514;28;20204;-70
2023/10/12 02:33:07;;;;;;;13.57;7.13;;;;;;;;;;5072621;28;20192;-70
2023/10/12 02:35:37;;;;;;;10.85;6.88;;;;;;;;;;5072728;28;20225;-70
2023/10/12 02:38:07;;;;;;;12.63;7.20;;;;;;;;;;5072566;28;20250;-70
2023/10/12 02:40:33;;;;;;;16.65;6.97;;;;;;;;;;5072443;28;20208;-70
2023/10/12 02:43:00;;;;;;;13.63;7.55;;;;;;;;;;5072702;28;20262;-70
2023/10/12 02:45:28;;;;;;;14.07;7.20;;;;;;;;;;5072431;28;20307;-70
2023/10/12 02:47:58;;;;;;;10.45;6.90;;;;;;;;;;5072299;28;20192;-70
2023/10/12 02:50:37;;;;;;;12.80;7.47;;;;;;;;;;5072034;28;20207;-70
2023/10/12 02:53:08;;;;;;;12.68;7.13;;;;;;;;;;5072349;28;20193;-70
2023/10/12 02:55:40;;;;;;;12.52;7.22;;;;;;;;;;5072018;28;20307;-70
2023/10/12 02:58:17;;;;;;;13.60;7.32;;;;;;;;;;5071989;28;20201;-70
2023/10/12 03:00:45;;;;;;;13.35;7.25;;;;;;;;;;5071960;28;20231;-70
2023/10/12 03:03:21;;;;;;;16.40;7.75;;;;;;;;;;5072070;28;20219;-71
2023/10/12 03:05:48;;;;;;;14.45;7.95;;;;;;;;;;5071881;28;20224;-70
2023/10/12 03:08:16;;;;;;;10.52;8.20;;;;;;;;;;5071734;28;20193;-70
2023/10/12 03:11:00;;;;;;;15.38;9.32;;;;;;;;;;5071759;28;20205;-70
2023/10/12 03:13:33;;;;;;;11.18;8.90;;;;;;;;;;5072038;28;20246;-70
2023/10/12 03:16:08;;;;;;;14.43;8.95;;;;;;;;;;5063853;28;20216;-71
2023/10/12 03:18:35;;;;;;;18.20;8.43;;;;;;;;;;5071791;28;20510;-71
2023/10/12 03:21:02;;;;;;;17.60;9.35;;;;;;;;;;5071861;28;20197;-71
2023/10/12 03:23:29;;;;;;;14.23;9.57;;;;;;;;;;5071745;28;20750;-71
2023/10/12 03:25:55;;;;;;;19.92;9.88;;;;;;;;;;5071667;28;20220;-71
2023/10/12 03:28:30;;;;;;;14.10;9.10;;;;;;;;;;5071753;28;20203;-71
2023/10/12 03:31:14;;;;;;;16.27;8.48;;;;;;;;;;5071480;28;20206;-71
2023/10/12 03:33:46;;;;;;;11.50;8.00;;;;;;;;;;5071933;28;20202;-71
2023/10/12 03:36:22;;;;;;;11.75;7.72;;;;;;;;;;5071968;28;20220;-71
2023/10/12 03:38:58;;;;;;;15.13;7.75;;;;;;;;;;5071651;28;20620;-71
2023/10/12 03:44:17;;;;;;;11.75;6.72;;;;;;;;;;5064422;28;20435;-71
2023/10/12 03:46:46;;;;;;;13.02;7.28;;;;;;;;;;5071483;28;20226;-71
2023/10/12 03:49:24;;;;;;;9.18;6.93;;;;;;;;;;5071462;28;20200;-71
2023/10/12 03:51:57;;;;;;;14.35;7.00;;;;;;;;;;5071162;28;20200;-70
2023/10/12 03:54:29;;;;;;;12.23;6.82;;;;;;;;;;5071346;28;20676;-70
2023/10/12 03:56:59;;;;;;;14.15;7.53;;;;;;;;;;5070868;28;20712;-70
2023/10/12 03:59:37;;;;;;;9.40;6.70;;;;;;;;;;5071298;28;20289;-70
2023/10/12 04:02:03;;;;;;;15.05;7.47;;;;;;;;;;5063226;28;20251;-70
2023/10/12 04:04:34;;;;;;;11.60;6.85;;;;;;;;;;5071264;28;20200;-70
2023/10/12 04:07:16;;;;;;;8.85;6.25;;;;;;;;;;5071271;28;20228;-70
2023/10/12 04:09:43;;;;;;;11.90;7.28;;;;;;;;;;5071268;28;20204;-70
2023/10/12 04:12:18;;;;;;;10.48;6.68;;;;;;;;;;5071450;28;20558;-70
2023/10/12 04:14:52;;;;;;;10.88;6.15;;;;;;;;;;5071633;28;20222;-70
2023/10/12 04:17:34;;;;;;;11.18;6.97;;;;;;;;;;5071585;28;20253;-70
2023/10/12 04:20:14;;;;;;;17.17;6.85;;;;;;;;;;5071101;28;20660;-70
2023/10/12 04:23:03;;;;;;;8.75;6.80;;;;;;;;;;5070919;28;20700;-70
2023/10/12 04:25:46;;;;;;;7.28;6.10;;;;;;;;;;5070855;28;20238;-70
2023/10/12 04:28:22;;;;;;;16.17;7.80;;;;;;;;;;5064050;28;20210;-70
2023/10/12 04:33:43;;;;;;;12.90;7.38;;;;;;;;;;5071412;28;20261;-70
2023/10/12 04:36:14;;;;;;;13.55;6.70;;;;;;;;;;5063258;28;20220;-71
2023/10/12 04:38:58;;;;;;;12.45;7.72;;;;;;;;;;5070894;28;20291;-70
2023/10/12 04:41:37;;;;;;;15.23;7.47;;;;;;;;;;5065344;28;20580;-71
2023/10/12 04:44:17;;;;;;;14.80;8.40;;;;;;;;;;5070895;28;20238;-71
2023/10/12 04:46:48;;;;;;;18.02;6.97;;;;;;;;;;5070860;28;20216;-71
2023/10/12 04:52:13;;;;;;;10.02;6.53;;;;;;;;;;5070862;28;20226;-70
2023/10/12 04:54:49;;;;;;;12.43;7.05;;;;;;;;;;5070793;28;20208;-71
2023/10/12 04:57:15;;;;;;;15.07;6.50;;;;;;;;;;5063634;28;20220;-70
2023/10/12 04:59:50;;;;;;;10.30;6.78;;;;;;;;;;5070445;28;20207;-70
2023/10/12 05:02:28;;;;;;;15.70;8.13;;;;;;;;;;5063339;28;20192;-70
2023/10/12 05:07:53;;;;;;;13.40;7.95;;;;;;;;;;5070267;28;20200;-71
2023/10/12 05:10:26;;;;;;;26.33;7.93;;;;;;;;;;5065738;28;20201;-70
2023/10/12 05:12:52;;;;;;;19.75;9.10;;;;;;;;;;5074143;28;20201;-70
2023/10/12 05:15:20;;;;;;;15.05;7.82;;;;;;;;;;5073960;28;20227;-70
2023/10/12 05:17:46;;;;;;;14.10;7.72;;;;;;;;;;5074158;28;20289;-64
2023/10/12 05:20:13;;;;;;;16.45;8.77;;;;;;;;;;5074091;28;20203;-66
2023/10/12 05:22:40;;;;;;;14.90;9.10;;;;;;;;;;5074161;28;20219;-64
2023/10/12 05:25:07;;;;;;;13.60;8.57;;;;;;;;;;5074039;28;20204;-65
2023/10/12 05:27:39;;;;;;;16.13;8.30;;;;;;;;;;5074013;28;20196;-65
2023/10/12 05:30:16;;;;;;;17.02;8.70;;;;;;;;;;5073504;28;20232;-65
2023/10/12 05:32:43;;;;;;;12.70;8.85;;;;;;;;;;5074072;28;20204;-65
2023/10/12 05:35:15;;;;;;;19.15;9.27;;;;;;;;;;5073919;28;20228;-65
2023/10/12 05:37:48;;;;;;;16.15;10.02;;;;;;;;;;5073804;28;20281;-64
2023/10/12 05:40:16;;;;;;;14.55;9.25;;;;;;;;;;5065562;28;20296;-65
2023/10/12 05:42:45;;;;;;;22.45;9.98;;;;;;;;;;5073575;28;20224;-65
2023/10/12 05:45:21;;;;;;;17.30;9.38;;;;;;;;;;5062332;28;20770;-66
2023/10/12 05:47:51;;;;;;;14.95;9.20;;;;;;;;;;5060643;28;20692;-66
2023/10/12 05:50:23;;;;;;;14.55;8.82;;;;;;;;;;5059679;28;20296;-65
2023/10/12 05:52:53;;;;;;;10.77;7.50;;;;;;;;;;5066732;28;20222;-63
2023/10/12 05:55:21;;;;;;;13.52;8.13;;;;;;;;;;5067229;28;20227;-63
2023/10/12 05:57:48;;;;;;;14.70;7.72;;;;;;;;;;5067546;28;20219;-62
2023/10/12 06:00:27;;;;;;;13.32;8.27;;;;;;;;;;5065563;28;20207;-63
2023/10/12 06:03:00;;;;;;;12.27;7.55;;;;;;;;;;5063030;28;20227;-64
2023/10/12 06:05:27;;;;;;;14.00;8.93;;;;;;;;;;5065340;28;20708;-65
2023/10/12 06:08:00;;;;;;;14.57;8.38;;;;;;;;;;5065764;28;20204;-65
2023/10/12 06:10:27;;;;;;;18.55;9.07;;;;;;;;;;5065693;28;20709;-65
2023/10/12 06:12:53;;;;;;;19.42;10.25;;;;;;;;;;5065302;28;20299;-65
2023/10/12 06:15:25;;;;;;;21.10;9.85;;;;;;;;;;5065967;28;20220;-65
2023/10/12 06:17:51;;;;;;;23.48;11.50;;;;;;;;;;5066280;28;20208;-65
2023/10/12 06:20:30;;;;;;;24.98;10.48;;;;;;;;;;5065961;28;20209;-65
2023/10/12 06:23:04;;;;;;;15.30;9.55;;;;;;;;;;5065818;28;21901;-64
2023/10/12 06:25:31;;;;;;;20.15;9.25;;;;;;;;;;5065462;28;20231;-65
2023/10/12 06:27:57;;;;;;;23.88;9.10;;;;;;;;;;5065991;28;20704;-65
2023/10/12 06:30:24;;;;;;;21.05;9.07;;;;;;;;;;5065809;28;20204;-65
2023/10/12 06:32:50;;;;;;;20.90;8.77;;;;;;;;;;5064782;28;20618;-65
2023/10/12 06:35:26;;;;;;;14.75;8.43;;;;;;;;;;5065584;28;20231;-65
2023/10/12 06:41:28;;;;;;;16.85;8.43;;;;;;;;;;5142711;27;20584;-65
2023/10/12 06:44:13;;;;;;;16.13;9.00;;;;;;;;;;5143040;27;20597;-65
2023/10/12 06:46:45;;;;;;;16.90;9.00;;;;;;;;;;5138266;27;20280;-65
2023/10/12 06:49:16;;;;;;;19.23;8.10;;;;;;;;;;5143062;27;20693;-65
2023/10/12 06:51:43;;;;;;;20.35;9.02;;;;;;;;;;5143300;27;20225;-65
2023/10/12 06:54:17;;;;;;;18.63;8.68;;;;;;;;;;5142609;27;20206;-65
2023/10/12 06:56:50;;;;;;;19.08;8.23;;;;;;;;;;5143050;27;20217;-65
2023/10/12 06:59:21;;;;;;;23.33;8.02;;;;;;;;;;5142796;27;20221;-65
2023/10/12 07:01:53;;;;;;;18.65;7.93;;;;;;;;;;5142060;27;20229;-65
2023/10/12 07:04:26;;;;;;;20.90;8.60;;;;;;;;;;5142158;27;20202;-65
2023/10/12 07:06:56;;;;;;;15.77;8.13;;;;;;;;;;5142261;27;20222;-65
2023/10/12 07:09:27;;;;;;;20.58;8.52;;;;;;;;;;5141038;27;20236;-65
2023/10/12 07:11:55;;;;;;;15.90;8.85;;;;;;;;;;5142405;27;20233;-65
2023/10/12 07:14:30;;;;;;;20.02;8.05;;;;;;;;;;5134438;27;20588;-65
2023/10/12 07:16:57;;;;;;;20.55;8.15;;;;;;;;;;5142562;27;20221;-67
2023/10/12 07:19:24;;;;;;;21.75;8.50;;;;;;;;;;5143479;27;20603;-65
2023/10/12 07:21:53;;;;;;;19.33;8.50;;;;;;;;;;5144332;27;20209;-65
2023/10/12 07:24:22;;;;;;;16.65;8.38;;;;;;;;;;5143520;27;20757;-66
2023/10/12 07:26:49;;;;;;;13.52;8.20;;;;;;;;;;5143779;27;20217;-67
2023/10/12 07:29:35;;;;;;;19.98;8.20;;;;;;;;;;5143587;27;20673;-66
2023/10/12 07:32:08;;;;;;;22.30;9.40;;;;;;;;;;5143490;27;20243;-65
2023/10/12 07:34:34;;;;;;;22.80;9.05;;;;;;;;;;5143334;27;20202;-65
2023/10/12 07:37:00;;;;;;;17.05;8.52;;;;;;;;;;5142772;27;20650;-64
2023/10/12 07:39:38;;;;;;;15.60;8.20;;;;;;;;;;5142750;27;20213;-64
2023/10/12 07:42:05;;;;;;;18.75;8.40;;;;;;;;;;5144152;27;20335;-64
2023/10/12 07:44:39;;;;;;;15.25;7.80;;;;;;;;;;5139178;27;20589;-63
2023/10/12 07:47:14;;;;;;;15.23;7.82;;;;;;;;;;5134155;27;20317;-65
2023/10/12 07:49:47;;;;;;;14.27;7.75;;;;;;;;;;5142995;27;20232;-65
2023/10/12 07:52:22;;;;;;;14.48;7.47;;;;;;;;;;5128014;27;20293;-66
2023/10/12 07:54:55;;;;;;;18.38;8.20;;;;;;;;;;5123752;27;20211;-67
2023/10/12 07:57:22;;;;;;;14.40;8.20;;;;;;;;;;5125052;27;20230;-67
2023/10/12 07:59:59;;;;;;;17.30;7.88;;;;;;;;;;5126879;27;20718;-67
2023/10/12 08:02:43;;;;;;;13.85;7.88;;;;;;;;;;5124903;27;20292;-67
2023/10/12 08:05:16;;;;;;;10.95;7.25;;;;;;;;;;5124534;27;20263;-66
2023/10/12 08:07:59;;;;;;;14.13;7.25;;;;;;;;;;5126302;27;20225;-67
2023/10/12 08:10:56;;;;;;;15.63;7.75;;;;;;;;;;5127606;27;20658;-65
2023/10/12 08:13:16;;;;;;;19.15;7.20;;;;;;;;;;5130428;27;20343;-64
2023/10/12 08:15:55;;;;;;;17.17;7.35;;;;;;;;;;5125901;27;20761;-64
2023/10/12 08:21:04;;;;;;;16.35;7.50;;;;;;;;;;5126105;27;20302;-63
2023/10/12 08:23:30;;;;;;;20.27;7.47;;;;;;;;;;5129296;27;20202;-65
2023/10/12 08:25:58;;;;;;;15.05;6.85;;;;;;;;;;5130557;27;20237;-63
2023/10/12 08:28:26;;;;;;;16.88;7.38;;;;;;;;;;5129077;27;20631;-64
2023/10/12 08:31:00;;;;;;;16.58;7.25;;;;;;;;;;5126992;27;20289;-63
2023/10/12 08:36:28;;;;;;;11.95;6.60;;;;;;;;;;5128906;27;20229;-63
2023/10/12 08:38:53;;;;;;;19.77;7.35;;;;;;;;;;5130761;27;20562;-64
2023/10/12 08:41:28;;;;;;;15.77;6.63;;;;;;;;;;5122023;27;20229;-64
2023/10/12 08:43:59;;;;;;;17.52;6.70;;;;;;;;;;5125937;27;20656;-64
2023/10/12 08:47:09;;;;;;;13.98;7.00;;;;;;;;;;5126400;27;20893;-64
2023/10/12 08:49:52;;;;;;;17.55;6.72;;;;;;;;;;5125087;27;20202;-64
2023/10/12 08:52:22;;;;;;;16.20;6.38;;;;;;;;;;5127875;27;20206;-64
2023/10/12 08:54:54;;;;;;;16.00;6.05;;;;;;;;;;5127846;27;20206;-64
2023/10/12 08:57:33;;;;;;;17.42;6.53;;;;;;;;;;5127737;27;21041;-64
2023/10/12 09:00:20;;;;;;;17.02;6.40;;;;;;;;;;5127798;27;20222;-64
2023/10/12 09:02:49;;;;;;;13.18;6.57;;;;;;;;;;5124053;27;20214;-65
2023/10/12 09:05:24;;;;;;;14.93;6.78;;;;;;;;;;5127212;27;20256;-65
2023/10/12 09:08:05;;;;;;;14.75;6.13;;;;;;;;;;5127028;27;20696;-64
2023/10/12 09:10:36;;;;;;;15.32;6.13;;;;;;;;;;5126654;27;20202;-64
2023/10/12 09:13:03;;;;;;;17.50;6.70;;;;;;;;;;5127665;27;20209;-64
2023/10/12 09:15:38;;;;;;;13.88;5.97;;;;;;;;;;5127595;27;20218;-65
2023/10/12 09:18:09;;;;;;;15.57;6.35;;;;;;;;;;5127070;27;20214;-65
2023/10/12 09:20:40;;;;;;;14.70;7.00;;;;;;;;;;5121064;27;21238;-65
2023/10/12 09:23:13;;;;;;;11.30;6.00;;;;;;;;;;5126669;27;20662;-65
2023/10/12 09:28:25;;;;;;;14.50;6.63;;;;;;;;;;5127424;27;20209;-65
2023/10/12 09:30:52;;;;;;;14.43;6.65;;;;;;;;;;5127274;27;20226;-65
2023/10/12 09:36:02;;;;;;;12.93;6.53;;;;;;;;;;5125967;27;20218;-65
2023/10/12 09:38:30;;;;;;;15.55;6.97;;;;;;;;;;5125644;27;20703;-65
2023/10/12 09:40:59;;;;;;;16.98;6.55;;;;;;;;;;5125349;27;20250;-64
2023/10/12 09:43:30;;;;;;;16.10;6.85;;;;;;;;;;5126003;27;20255;-63
2023/10/12 09:45:58;;;;;;;19.45;6.95;;;;;;;;;;5125511;27;20226;-65
2023/10/12 09:48:29;;;;;;;13.38;6.75;;;;;;;;;;5125847;27;20296;-64
2023/10/12 09:50:56;;;;;;;15.98;7.00;;;;;;;;;;5126163;27;20657;-63
2023/10/12 09:53:27;;;;;;;19.85;7.07;;;;;;;;;;5127038;27;20218;-66
2023/10/12 09:56:11;;;;;;;18.27;7.18;;;;;;;;;;5127166;27;20226;-64
2023/10/12 09:58:43;;;;;;;20.48;7.97;;;;;;;;;;5117151;27;20195;-64
2023/10/12 10:01:15;;;;;;;17.90;7.40;;;;;;;;;;5121844;27;20242;-64
2023/10/12 10:03:47;;;;;;;16.98;7.70;;;;;;;;;;5120633;27;20599;-65
2023/10/12 10:06:20;;;;;;;24.48;6.80;;;;;;;;;;5116535;27;20231;-66
2023/10/12 10:09:18;;;;;;;23.58;7.25;;;;;;;;;;5116045;27;20301;-66
2023/10/12 10:14:47;;;;;;;17.60;7.68;;;;;;;;;;5115872;27;20258;-66
2023/10/12 10:17:15;;;;;;;12.35;5.93;;;;;;;;;;5123995;27;20274;-64
2023/10/12 10:19:43;;;;;;;17.38;6.45;;;;;;;;;;5116365;27;20206;-64
2023/10/12 10:22:11;;;;;;;21.25;6.90;;;;;;;;;;5120832;27;20214;-63
2023/10/12 10:24:51;;;;;;;17.25;6.63;;;;;;;;;;5125224;27;20233;-63
2023/10/12 10:27:18;;;;;;;15.82;6.13;;;;;;;;;;5121425;27;20214;-67
2023/10/12 10:29:52;;;;;;;16.35;6.13;;;;;;;;;;5128598;27;20228;-64
2023/10/12 10:32:21;;;;;;;11.50;5.82;;;;;;;;;;5130065;27;20278;-64
2023/10/12 10:34:52;;;;;;;14.60;5.38;;;;;;;;;;5130169;27;20210;-64
2023/10/12 10:37:37;;;;;;;14.88;6.25;;;;;;;;;;5130302;27;20226;-64
2023/10/12 10:40:09;;;;;;;17.80;6.03;;;;;;;;;;5129631;28;20246;-66
2023/10/12 10:42:37;;;;;;;8.25;5.82;;;;;;;;;;5116981;28;20607;-66
2023/10/12 10:45:12;;;;;;;12.75;6.20;;;;;;;;;;5119617;28;20595;-64
2023/10/12 10:47:38;;;;;;;6.90;5.05;;;;;;;;;;5124583;28;20628;-63
2023/10/12 10:50:12;;;;;;;8.65;5.72;;;;;;;;;;5125542;28;20198;-62
2023/10/12 10:52:39;;;;;;;17.40;6.22;;;;;;;;;;5124261;28;20206;-61
2023/10/12 10:55:10;;;;;;;14.10;5.82;;;;;;;;;;5126684;28;20214;-61
2023/10/12 10:57:38;;;;;;;9.43;4.82;;;;;;;;;;5127140;28;20210;-61
2023/10/12 11:00:10;;;;;;;10.55;5.45;;;;;;;;;;5127315;27;20693;-60
2023/10/12 11:02:36;;;;;;;8.40;5.00;;;;;;;;;;5126941;28;20849;-63
2023/10/12 11:05:09;;;;;;;11.63;5.32;;;;;;;;;;5124129;28;20214;-61
2023/10/12 11:07:37;;;;;;;12.07;5.63;;;;;;;;;;5125227;27;20206;-63
2023/10/12 11:10:08;;;;;;;14.55;6.35;;;;;;;;;;5125052;28;20210;-60
2023/10/12 11:12:36;;;;;;;9.38;5.28;;;;;;;;;;5125412;28;20203;-60
2023/10/12 11:15:07;;;;;;;10.98;4.72;;;;;;;;;;5119610;28;20301;-61
2023/10/12 11:17:35;;;;;;;12.80;5.70;;;;;;;;;;5125167;28;20215;-64
2023/10/12 11:20:08;;;;;;;11.35;5.22;;;;;;;;;;5124837;28;20256;-63
2023/10/12 11:22:37;;;;;;;12.48;5.07;;;;;;;;;;5125147;27;20206;-64
2023/10/12 11:25:04;;;;;;;10.90;4.60;;;;;;;;;;5125091;27;20209;-64
2023/10/12 11:27:32;;;;;;;6.20;5.15;;;;;;;;;;5128702;27;20210;-65
2023/10/12 11:30:06;;;;;;;7.57;4.93;;;;;;;;;;5129222;27;20252;-62
2023/10/12 11:32:33;;;;;;;7.22;5.07;;;;;;;;;;5129255;27;20213;-63
2023/10/12 11:35:00;;;;;;;10.32;5.40;;;;;;;;;;5129024;27;20214;-61
2023/10/12 11:37:28;;;;;;;9.70;4.75;;;;;;;;;;5129409;27;20214;-61
2023/10/12 11:39:54;;;;;;;9.70;4.97;;;;;;;;;;5128701;27;20213;-62
2023/10/12 11:42:21;;;;;;;9.43;5.13;;;;;;;;;;5128908;27;20202;-63
2023/10/12 11:44:48;;;;;;;9.27;4.80;;;;;;;;;;5128284;27;20206;-63
2023/10/12 11:47:29;;;;;;;13.25;5.43;;;;;;;;;;5128755;27;20234;-62
2023/10/12 11:49:57;;;;;;;9.43;5.25;;;;;;;;;;5124263;27;20633;-62
2023/10/12 11:52:29;;;;;;;11.90;4.60;;;;;;;;;;5128831;27;20210;-60
2023/10/12 11:55:00;;;;;;;6.22;4.78;;;;;;;;;;5129416;27;20211;-62
2023/10/12 11:57:27;;;;;;;13.80;5.15;;;;;;;;;;5128884;27;20195;-59
2023/10/12 11:59:53;;;;;;;8.65;5.05;;;;;;;;;;5128791;27;20303;-63
2023/10/12 12:02:22;;;;;;;7.20;4.57;;;;;;;;;;5128484;27;20206;-63
2023/10/12 12:04:50;;;;;;;14.30;4.85;;;;;;;;;;5123279;27;20206;-63
2023/10/12 12:07:17;;;;;;;8.75;4.65;;;;;;;;;;5128450;27;20218;-63
2023/10/12 12:09:48;;;;;;;13.65;4.90;;;;;;;;;;5128794;27;20214;-62
2023/10/12 12:12:16;;;;;;;9.77;5.10;;;;;;;;;;5128443;27;20195;-62
2023/10/12 12:14:46;;;;;;;9.65;4.78;;;;;;;;;;5128393;27;20271;-63
2023/10/12 12:17:12;;;;;;;11.98;4.97;;;;;;;;;;5128694;27;20336;-63
2023/10/12 12:19:41;;;;;;;9.85;4.90;;;;;;;;;;5128267;27;20943;-61
2023/10/12 12:22:10;;;;;;;11.48;5.18;;;;;;;;;;5128484;27;20744;-62
2023/10/12 12:24:41;;;;;;;11.50;4.95;;;;;;;;;;5127701;27;20662;-62
2023/10/12 12:27:22;;;;;;;14.10;5.13;;;;;;;;;;5128560;27;20698;-62
2023/10/12 12:29:49;;;;;;;14.15;5.22;;;;;;;;;;5127656;27;20202;-63
2023/10/12 12:32:18;;;;;;;10.15;4.78;;;;;;;;;;5127587;27;20206;-63
2023/10/12 12:34:47;;;;;;;7.70;4.80;;;;;;;;;;5127463;27;20753;-63
2023/10/12 12:37:17;;;;;;;10.43;5.55;;;;;;;;;;5128063;27;20688;-61
2023/10/12 12:39:50;;;;;;;8.90;5.68;;;;;;;;;;5128096;27;20229;-64
2023/10/12 12:42:19;;;;;;;11.40;5.20;;;;;;;;;;5128070;27;20220;-64
2023/10/12 12:44:46;;;;;;;12.50;5.70;;;;;;;;;;5128041;27;20209;-63
2023/10/12 12:47:14;;;;;;;16.65;5.50;;;;;;;;;;5127615;27;20261;-61
2023/10/12 12:49:42;;;;;;;13.27;5.78;;;;;;;;;;5126823;27;20509;-64
2023/10/12 12:52:09;;;;;;;11.30;5.70;;;;;;;;;;5126490;27;20230;-64
2023/10/12 12:54:35;;;;;;;9.05;6.05;;;;;;;;;;5125449;27;20239;-63
2023/10/12 12:57:04;;;;;;;9.60;5.53;;;;;;;;;;5126566;27;20236;-62
2023/10/12 12:59:31;;;;;;;10.68;6.10;;;;;;;;;;5126905;27;20210;-64
2023/10/12 13:01:57;;;;;;;8.25;5.70;;;;;;;;;;5126068;27;20625;-64
2023/10/12 13:04:24;;;;;;;12.32;5.88;;;;;;;;;;5126183;27;20210;-64
2023/10/12 13:06:51;;;;;;;7.28;5.38;;;;;;;;;;5126400;27;20218;-65
2023/10/12 13:09:29;;;;;;;7.15;4.82;;;;;;;;;;5126004;27;20670;-63
2023/10/12 13:11:55;;;;;;;7.18;5.50;;;;;;;;;;5126810;27;20632;-63
2023/10/12 13:14:23;;;;;;;10.57;5.60;;;;;;;;;;5126164;27;20202;-63
2023/10/12 13:16:50;;;;;;;11.70;5.35;;;;;;;;;;5124973;27;20222;-64
2023/10/12 13:19:17;;;;;;;14.63;5.75;;;;;;;;;;5126067;27;20233;-64
2023/10/12 13:21:43;;;;;;;10.68;5.63;;;;;;;;;;5126220;27;20241;-62
2023/10/12 13:24:12;;;;;;;9.68;5.57;;;;;;;;;;5125469;27;20206;-63
2023/10/12 13:26:43;;;;;;;8.50;5.40;;;;;;;;;;5122478;27;20620;-63
2023/10/12 13:29:09;;;;;;;9.00;6.03;;;;;;;;;;5125218;27;20685;-62
2023/10/12 13:31:37;;;;;;;12.65;5.15;;;;;;;;;;5125151;27;20213;-63
2023/10/12 13:34:05;;;;;;;18.55;6.82;;;;;;;;;;5126054;27;20602;-62
2023/10/12 13:36:32;;;;;;;11.25;6.35;;;;;;;;;;5126005;27;20228;-60
2023/10/12 13:38:59;;;;;;;10.38;5.95;;;;;;;;;;5120928;27;20207;-64
2023/10/12 13:41:25;;;;;;;7.03;5.60;;;;;;;;;;5125808;27;20244;-62
2023/10/12 13:43:52;;;;;;;8.20;5.55;;;;;;;;;;5125443;27;20704;-63
2023/10/12 13:46:20;;;;;;;8.68;5.60;;;;;;;;;;5124991;27;20222;-63
2023/10/12 13:48:49;;;;;;;12.32;5.13;;;;;;;;;;5124615;27;20267;-63
2023/10/12 13:51:19;;;;;;;10.57;5.88;;;;;;;;;;5124897;27;20198;-63
2023/10/12 13:53:46;;;;;;;9.88;5.70;;;;;;;;;;5124894;27;20397;-64
2023/10/12 13:56:13;;;;;;;10.60;6.38;;;;;;;;;;5125034;27;20224;-62
2023/10/12 13:58:39;;;;;;;11.02;5.32;;;;;;;;;;5125319;27;20202;-62
2023/10/12 14:01:13;;;;;;;10.50;6.25;;;;;;;;;;5125363;27;20221;-61
2023/10/12 14:03:41;;;;;;;10.23;6.22;;;;;;;;;;5125439;27;20274;-63
2023/10/12 14:06:08;;;;;;;10.57;6.20;;;;;;;;;;5124470;27;20218;-62
2023/10/12 14:08:35;;;;;;;11.25;5.97;;;;;;;;;;5125293;27;20221;-63
2023/10/12 14:11:03;;;;;;;15.00;6.07;;;;;;;;;;5125694;27;20225;-63
2023/10/12 14:13:30;;;;;;;14.02;6.05;;;;;;;;;;5123625;27;20238;-63
2023/10/12 14:15:56;;;;;;;9.65;5.70;;;;;;;;;;5123147;27;20218;-63
2023/10/12 14:18:22;;;;;;;16.55;6.75;;;;;;;;;;5123480;27;20218;-62
2023/10/12 14:20:51;;;;;;;11.45;6.72;;;;;;;;;;5122699;27;20730;-63
2023/10/12 14:23:18;;;;;;;12.45;6.47;;;;;;;;;;5123314;27;20206;-63
2023/10/12 14:25:47;;;;;;;10.52;6.70;;;;;;;;;;5123746;27;20315;-62
2023/10/12 14:28:16;;;;;;;12.98;7.35;;;;;;;;;;5124995;27;20206;-63
2023/10/12 14:30:42;;;;;;;8.73;6.50;;;;;;;;;;5126020;27;20298;-65
2023/10/12 14:33:09;;;;;;;11.93;6.50;;;;;;;;;;5125725;27;20195;-64
2023/10/12 14:35:37;;;;;;;9.77;6.80;;;;;;;;;;5124593;27;20222;-64
2023/10/12 14:38:08;;;;;;;15.90;7.72;;;;;;;;;;5124460;27;20213;-62
2023/10/12 14:40:40;;;;;;;11.68;7.25;;;;;;;;;;5125774;27;20467;-63
2023/10/12 14:43:10;;;;;;;11.70;7.82;;;;;;;;;;5117721;28;21432;-64
2023/10/12 14:45:38;;;;;;;13.82;7.05;;;;;;;;;;5124382;28;20214;-62
2023/10/12 14:48:09;;;;;;;14.27;7.80;;;;;;;;;;5124241;28;20202;-64
2023/10/12 14:50:35;;;;;;;12.15;7.32;;;;;;;;;;5124853;27;20206;-65
2023/10/12 14:53:02;;;;;;;17.02;7.07;;;;;;;;;;5124713;27;20202;-63
2023/10/12 14:55:28;;;;;;;9.77;7.35;;;;;;;;;;5124932;28;20226;-62
2023/10/12 14:57:56;;;;;;;14.63;7.57;;;;;;;;;;5124169;28;20226;-62
2023/10/12 15:00:27;;;;;;;17.45;7.70;;;;;;;;;;5125271;27;20209;-63
2023/10/12 15:02:56;;;;;;;18.08;8.20;;;;;;;;;;5128636;27;20218;-62
2023/10/12 15:05:25;;;;;;;12.75;7.30;;;;;;;;;;5128522;27;20523;-64
2023/10/12 15:07:52;;;;;;;18.15;7.38;;;;;;;;;;5129119;27;20214;-64
2023/10/12 15:10:18;;;;;;;15.90;7.30;;;;;;;;;;5128229;27;20285;-64
2023/10/12 15:12:48;;;;;;;9.30;7.03;;;;;;;;;;5129280;27;20209;-64
2023/10/12 15:15:18;;;;;;;14.70;7.15;;;;;;;;;;5128448;27;20249;-63
2023/10/12 15:17:45;;;;;;;13.38;7.30;;;;;;;;;;5129189;27;20206;-63
2023/10/12 15:20:15;;;;;;;16.55;7.82;;;;;;;;;;5129987;27;20210;-63
2023/10/12 15:22:42;;;;;;;13.15;6.93;;;;;;;;;;5129895;27;20206;-62